Aérodrome :
LOGIN :

S'inscrire | Disclaimer

   EN    FR    IT 

 










Légende :    VFR   VFR Marginal   IFR   IFR Intensif   IFR Très Intensif
Visi : 
Plafond : 
>= 8 km
>= 3000ft
5 à 8 km
1000 à 3000 ft
1500m à 5 km
500 à 1000 ft
800 à 1500m
200 à 500 ft
< 800m
< 200 ft
Symboles :   Orages  Brouillard  Fortes neiges  Fortes précipitations  Vent > 20 kt
SIGMETs :   Divers  Orages  Givrage  Turbulence  Onde Orograph.  Cendres Volcan.







- Altitude de l'aérodrome : 76 ft
- Code IATA : KID


ESMK - Kristianstad

DERNIER METAR :
  • 192150Z AUTO 20006KT 9999 FEW056/// SCT083/// 17/13 Q1013

METARs EXPIRÉS :
  • 192120Z AUTO 16007KT 9999 FEW076/// 14/12 Q1013
  • 192050Z AUTO 16008KT 9999 FEW065/// 15/13 Q1013
  • 192020Z AUTO 16007KT 9999 NCD 15/13 Q1013
  • 191950Z AUTO 16009KT 9999 NCD 16/13 Q1013
  • 191920Z 14009KT CAVOK 17/14 Q1013

Prévision TAF périmée.
Pas de NOTAMs connus pour ce terrain.



MET'MAP, la Météo Aéronautique d'un coup d'oeil ! - Copyright ORBIFLY Décembre 2007 - Disclaimer

ORBIFLY MET'MAP TEAM :

Programmation & Développement : Alexandra Zaïnal
Conception & Développement : Baudouin d'Aumeries
Co-Programmation & Développement : Marc-Olivier Méhu
Soutien technique & logistique : Manuel Goepfert

Contact : metmap@orbifly.com




SOURCES & CREDITS :

   NOAA